Time;durP1;ratioP1;P1;durP2;ratioP2;P2;SDS_P1;SDS_P2;PMS_P1;PMS_P2;Temp;Humidity;BMP_temperature;BMP_pressure;BME280_temperature;BME280_humidity;BME280_pressure;Samples;Min_cycle;Max_cycle;Signal;HPM_P1;HPM_P2
2021/07/21 00:02:11;;;;;;;6.87;4.93;;;;;;;16.74;71.94;101312.66;5072216;28;20222;-69
2021/07/21 00:04:38;;;;;;;7.70;4.70;;;;;;;16.73;71.98;101317.19;5073222;28;20167;-68
2021/07/21 00:07:05;;;;;;;6.93;4.50;;;;;;;16.73;72.16;101311.81;5073877;28;20210;-69
2021/07/21 00:09:30;;;;;;;7.37;4.57;;;;;;;16.73;72.18;101317.19;5074195;28;20658;-69
2021/07/21 00:14:40;;;;;;;9.67;4.87;;;;;;;16.78;72.33;101312.31;5073816;28;20217;-69
2021/07/21 00:17:17;;;;;;;6.63;4.37;;;;;;;16.81;72.35;101308.56;5073406;28;20179;-68
2021/07/21 00:22:27;;;;;;;8.43;4.90;;;;;;;16.74;72.78;101310.81;5073847;28;20197;-69
2021/07/21 00:24:52;;;;;;;6.30;4.47;;;;;;;16.80;72.95;101309.53;5073484;28;20175;-69
2021/07/21 00:27:17;;;;;;;7.20;4.67;;;;;;;16.73;73.29;101314.50;5073246;28;20586;-69
2021/07/21 00:29:43;;;;;;;6.07;4.33;;;;;;;16.70;73.40;101308.44;5073242;28;20178;-69
2021/07/21 00:32:08;;;;;;;7.77;4.43;;;;;;;16.72;73.83;101311.88;5073418;28;20206;-69
2021/07/21 00:34:34;;;;;;;7.23;4.63;;;;;;;16.70;73.75;101311.13;5073602;28;20272;-68
2021/07/21 00:36:59;;;;;;;7.70;4.67;;;;;;;16.73;73.74;101313.63;5071966;28;20167;-68
2021/07/21 00:39:24;;;;;;;6.80;4.50;;;;;;;16.69;74.07;101312.09;5072259;28;20661;-69
2021/07/21 00:41:50;;;;;;;6.07;4.37;;;;;;;16.66;74.26;101306.94;5073226;28;20167;-69
2021/07/21 00:44:15;;;;;;;7.13;4.80;;;;;;;16.70;74.58;101308.44;5071751;28;20689;-68
2021/07/21 00:46:41;;;;;;;6.07;4.57;;;;;;;16.70;74.25;101309.28;5073021;28;20282;-69
2021/07/21 00:49:06;;;;;;;7.00;4.30;;;;;;;16.71;74.51;101308.31;5073054;28;20539;-69
2021/07/21 00:51:32;;;;;;;7.47;4.33;;;;;;;16.65;75.02;101303.34;5072959;28;20199;-69
2021/07/21 00:53:57;;;;;;;6.43;4.60;;;;;;;16.67;74.54;101304.13;5071791;28;20190;-68
2021/07/21 00:56:23;;;;;;;11.50;5.10;;;;;;;16.70;74.44;101308.44;5071816;28;20186;-68
2021/07/21 00:58:48;;;;;;;7.40;5.17;;;;;;;16.75;74.89;101309.00;5072007;28;20646;-69
2021/07/21 01:01:14;;;;;;;7.20;4.70;;;;;;;16.74;74.42;101313.53;5072894;28;20171;-68
2021/07/21 01:03:39;;;;;;;6.53;4.90;;;;;;;16.70;75.30;101311.97;5072808;28;20217;-68
2021/07/21 01:06:04;;;;;;;8.30;5.17;;;;;;;16.78;74.67;101306.06;5072922;28;20228;-69
2021/07/21 01:08:30;;;;;;;12.70;4.90;;;;;;;16.66;75.35;101304.22;5071723;28;20179;-68
2021/07/21 01:11:02;;;;;;;6.90;5.33;;;;;;;16.70;75.47;101311.13;5073591;28;20179;-69
2021/07/21 01:13:48;;;;;;;9.63;5.37;;;;;;;16.68;75.43;101310.38;5075948;28;20213;-68
2021/07/21 01:16:20;;;;;;;8.47;4.93;;;;;;;16.71;75.55;101310.16;5076112;28;20167;-69
2021/07/21 01:19:15;;;;;;;10.13;4.77;;;;;;;16.62;76.26;101314.34;5058892;28;20179;-68
2021/07/21 01:22:13;;;;;;;8.23;5.20;;;;;;;16.65;76.35;101307.88;5076826;28;20174;-69
2021/07/21 01:25:04;;;;;;;7.53;5.40;;;;;;;16.70;76.20;101314.69;5076662;28;20175;-68
2021/07/21 01:27:43;;;;;;;8.33;5.00;;;;;;;16.66;76.41;101307.78;5077013;28;20171;-68
2021/07/21 01:30:18;;;;;;;6.33;5.23;;;;;;;16.70;76.04;101311.13;5075700;28;20185;-68
2021/07/21 01:32:46;;;;;;;7.90;5.40;;;;;;;16.69;75.95;101314.78;5075454;28;20240;-68
2021/07/21 01:35:15;;;;;;;6.77;4.83;;;;;;;16.66;76.42;101312.31;5075420;28;20175;-69
2021/07/21 01:37:46;;;;;;;10.03;5.27;;;;;;;16.64;76.71;101314.22;5076551;28;20261;-69
2021/07/21 01:40:18;;;;;;;8.60;5.80;;;;;;;16.69;76.34;101320.19;5058934;28;20270;-69
2021/07/21 01:42:44;;;;;;;6.33;4.97;;;;;;;16.65;76.85;101322.19;5076372;28;20209;-68
2021/07/21 01:45:10;;;;;;;8.77;6.10;;;;;;;16.62;76.90;101317.03;5075209;28;20581;-68
2021/07/21 01:47:37;;;;;;;9.23;5.63;;;;;;;16.60;77.22;101320.81;5075055;28;20178;-68
2021/07/21 01:50:04;;;;;;;9.30;5.80;;;;;;;16.60;77.06;101312.72;5058403;28;20179;-68
2021/07/21 01:52:30;;;;;;;8.63;5.30;;;;;;;16.61;77.63;101326.09;5058111;28;20207;-69
2021/07/21 01:54:57;;;;;;;7.70;5.77;;;;;;;16.65;77.13;101321.34;5075405;28;20178;-68
2021/07/21 01:57:24;;;;;;;10.23;5.30;;;;;;;16.57;78.06;101319.19;5076069;28;20175;-69
2021/07/21 01:59:50;;;;;;;9.70;5.50;;;;;;;16.55;77.81;101321.13;5075282;28;20175;-69
2021/07/21 02:02:16;;;;;;;8.70;5.73;;;;;;;16.56;77.68;101323.72;5074590;28;20182;-69
2021/07/21 02:04:43;;;;;;;9.43;5.93;;;;;;;16.58;77.67;101316.38;5076576;28;20528;-68
2021/07/21 02:07:10;;;;;;;7.67;5.57;;;;;;;16.65;77.35;101311.41;5058006;28;20547;-68
2021/07/21 02:09:38;;;;;;;8.73;5.73;;;;;;;16.66;77.67;101317.72;5074848;28;20175;-68
2021/07/21 02:12:04;;;;;;;8.83;6.17;;;;;;;16.62;77.64;101321.56;5074800;28;20311;-68
2021/07/21 02:14:29;;;;;;;12.13;5.80;;;;;;;16.57;77.72;101319.19;5074562;28;20183;-69
2021/07/21 02:16:56;;;;;;;9.27;5.83;;;;;;;16.55;78.19;101326.53;5075720;28;20205;-69
2021/07/21 02:19:21;;;;;;;7.90;5.90;;;;;;;16.57;78.54;101325.44;5074555;28;20535;-68
2021/07/21 02:21:47;;;;;;;8.93;5.40;;;;;;;16.49;79.01;101318.88;5075224;28;20171;-68
2021/07/21 02:24:13;;;;;;;9.87;6.10;;;;;;;16.48;79.09;101314.44;5073404;28;20216;-69
2021/07/21 02:26:39;;;;;;;8.80;5.70;;;;;;;16.43;79.46;101322.00;5074409;28;20171;-68
2021/07/21 02:29:06;;;;;;;8.23;5.87;;;;;;;16.47;78.98;101320.81;5075660;28;20175;-69
2021/07/21 02:31:37;;;;;;;8.93;6.07;;;;;;;16.46;79.56;101325.34;5074267;28;20195;-69
2021/07/21 02:34:03;;;;;;;8.90;5.93;;;;;;;16.47;79.42;101324.38;5074359;28;20746;-68
2021/07/21 02:36:30;;;;;;;7.60;6.23;;;;;;;16.42;79.53;101326.53;5075463;28;20178;-68
2021/07/21 02:38:56;;;;;;;8.80;5.70;;;;;;;16.43;79.96;101330.94;5075675;28;20266;-69
2021/07/21 02:41:21;;;;;;;10.67;6.43;;;;;;;16.44;79.94;101324.59;5075758;28;20534;-69
2021/07/21 02:43:46;;;;;;;8.80;5.93;;;;;;;16.37;80.12;101327.81;5074029;28;20198;-68
2021/07/21 02:46:12;;;;;;;9.60;6.00;;;;;;;16.27;80.52;101332.94;5074619;28;20194;-68
2021/07/21 02:48:38;;;;;;;7.93;5.90;;;;;;;16.31;80.84;101334.47;5073968;28;20655;-68
2021/07/21 02:51:24;;;;;;;9.10;6.93;;;;;;;16.30;80.83;101331.88;5073921;28;20671;-68
2021/07/21 02:54:00;;;;;;;11.57;6.67;;;;;;;16.27;81.22;101339.19;5073895;28;20226;-68
2021/07/21 02:56:26;;;;;;;9.67;6.57;;;;;;;16.19;81.51;101335.31;5073910;28;20202;-69
2021/07/21 02:59:00;;;;;;;11.00;6.83;;;;;;;16.13;82.03;101333.03;5074301;28;20182;-68
2021/07/21 03:01:26;;;;;;;9.87;6.67;;;;;;;16.12;82.06;101342.09;5074155;28;20151;-68
2021/07/21 03:03:51;;;;;;;9.20;6.40;;;;;;;16.16;82.02;101341.78;5073792;28;20579;-68
2021/07/21 03:06:20;;;;;;;9.10;6.60;;;;;;;16.21;81.66;101342.31;5073851;28;20186;-68
2021/07/21 03:08:46;;;;;;;12.50;7.03;;;;;;;16.26;81.59;101344.69;5073954;28;20174;-68
2021/07/21 03:11:12;;;;;;;9.43;6.70;;;;;;;16.23;82.10;101339.53;5073756;28;20268;-69
2021/07/21 03:13:51;;;;;;;10.10;6.80;;;;;;;16.26;82.08;101352.78;5073521;28;20659;-68
2021/07/21 03:16:22;;;;;;;8.93;6.70;;;;;;;16.26;81.92;101342.00;5056732;28;20262;-68
2021/07/21 03:18:48;;;;;;;11.17;7.50;;;;;;;16.27;82.14;101343.72;5073786;28;20250;-68
2021/07/21 03:21:14;;;;;;;8.73;7.30;;;;;;;16.35;81.32;101346.75;5073804;28;20539;-68
2021/07/21 03:23:39;;;;;;;15.17;6.53;;;;;;;16.26;82.06;101348.25;5073429;28;20187;-68
2021/07/21 03:26:07;;;;;;;10.43;7.37;;;;;;;16.24;81.72;101350.19;5073307;28;20177;-69
2021/07/21 03:28:32;;;;;;;10.70;6.57;;;;;;;16.16;82.59;101354.38;5073522;28;20175;-68
2021/07/21 03:30:59;;;;;;;10.10;6.97;;;;;;;16.14;82.77;101348.25;5073034;28;20186;-68
2021/07/21 03:33:25;;;;;;;10.00;8.00;;;;;;;16.17;82.93;101358.78;5072719;28;20187;-68
2021/07/21 03:35:51;;;;;;;11.03;7.97;;;;;;;16.21;83.08;101357.63;5072946;28;20250;-68
2021/07/21 03:38:20;;;;;;;10.93;7.93;;;;;;;16.23;82.71;101363.75;5073287;28;20600;-68
2021/07/21 03:40:49;;;;;;;10.57;6.70;;;;;;;16.31;82.30;101366.78;5073373;28;20631;-68
2021/07/21 03:43:15;;;;;;;8.13;6.23;;;;;;;16.32;82.48;101356.88;5072792;28;20206;-69
2021/07/21 03:45:40;;;;;;;12.47;7.70;;;;;;;16.31;82.86;101357.84;5073165;28;20638;-68
2021/07/21 03:48:06;;;;;;;10.70;7.00;;;;;;;16.38;81.94;101360.03;5074185;28;20228;-68
2021/07/21 03:50:31;;;;;;;10.97;6.50;;;;;;;16.45;81.74;101358.63;5073026;28;20504;-68
2021/07/21 03:52:59;;;;;;;10.23;6.67;;;;;;;16.48;82.19;101355.72;5073984;28;20234;-68
2021/07/21 03:55:28;;;;;;;8.10;6.20;;;;;;;16.46;82.27;101354.97;5072674;28;20178;-68
2021/07/21 03:57:53;;;;;;;12.27;7.33;;;;;;;16.50;82.16;101361.88;5073576;28;20239;-69
2021/07/21 04:00:20;;;;;;;9.80;6.60;;;;;;;16.48;82.46;101361.13;5073854;28;20171;-69
2021/07/21 04:02:50;;;;;;;10.43;6.60;;;;;;;16.52;81.57;101369.84;5097928;22;20203;-69
2021/07/21 04:05:16;;;;;;;10.70;6.73;;;;;;;16.48;82.25;101371.03;5092998;28;20289;-67
2021/07/21 04:07:44;;;;;;;12.57;7.07;;;;;;;16.50;82.02;101375.34;5094332;28;20261;-69
2021/07/21 04:10:11;;;;;;;8.80;6.10;;;;;;;16.50;82.32;101383.44;5075920;28;20174;-68
2021/07/21 04:12:40;;;;;;;9.43;6.90;;;;;;;16.47;82.77;101380.09;5092432;28;20259;-68
2021/07/21 04:15:05;;;;;;;8.57;6.47;;;;;;;16.48;82.91;101382.66;5093099;28;20585;-68
2021/07/21 04:17:31;;;;;;;8.97;6.97;;;;;;;16.45;83.20;101374.81;5092518;28;20186;-69
2021/07/21 04:19:57;;;;;;;10.40;7.07;;;;;;;16.42;82.94;101377.72;5093676;28;20171;-67
2021/07/21 04:22:23;;;;;;;13.40;7.40;;;;;;;16.35;83.65;101370.13;5092809;28;20167;-68
2021/07/21 04:24:49;;;;;;;11.40;7.60;;;;;;;16.31;83.46;101387.47;5092676;28;20284;-68
2021/07/21 04:27:14;;;;;;;10.13;7.67;;;;;;;16.31;83.44;101388.34;5096381;28;20185;-68
2021/07/21 04:29:41;;;;;;;12.67;8.40;;;;;;;16.38;83.35;101391.50;5094207;28;20584;-68
2021/07/21 04:32:07;;;;;;;10.53;7.33;;;;;;;16.41;83.14;101385.91;5075587;28;20198;-68
2021/07/21 04:34:33;;;;;;;12.10;7.57;;;;;;;16.45;83.23;101385.59;5093575;28;20194;-68
2021/07/21 04:36:59;;;;;;;10.33;7.43;;;;;;;16.43;83.26;101392.91;5093241;28;20177;-68
2021/07/21 04:39:24;;;;;;;10.43;7.17;;;;;;;16.50;82.56;101388.81;5075116;28;20181;-68
2021/07/21 04:41:55;;;;;;;13.67;7.90;;;;;;;16.51;82.36;101392.38;5092560;28;20174;-68
2021/07/21 04:44:20;;;;;;;8.47;7.27;;;;;;;16.56;82.95;101401.88;5093789;28;20205;-68
2021/07/21 04:46:46;;;;;;;10.57;7.33;;;;;;;16.62;81.96;101413.19;5092510;28;20178;-68
2021/07/21 04:49:15;;;;;;;11.47;7.30;;;;;;;16.61;82.47;101415.00;5092532;28;20178;-68
2021/07/21 04:51:41;;;;;;;11.57;7.73;;;;;;;16.67;81.69;101411.94;5093027;28;20289;-68
2021/07/21 04:54:07;;;;;;;10.13;7.87;;;;;;;16.64;81.65;101409.41;5091918;28;20290;-69
2021/07/21 04:56:33;;;;;;;10.00;7.57;;;;;;;16.64;81.73;101409.41;5093045;28;20170;-68
2021/07/21 04:58:59;;;;;;;10.57;7.73;;;;;;;16.61;81.61;101422.25;5092383;28;20170;-68
2021/07/21 05:01:24;;;;;;;9.87;7.50;;;;;;;16.47;82.07;101415.97;5091874;28;20215;-68
2021/07/21 05:03:53;;;;;;;12.97;7.47;;;;;;;16.35;83.08;101411.41;5092758;28;20285;-68
2021/07/21 05:06:19;;;;;;;13.53;7.43;;;;;;;16.33;83.37;101418.72;5092887;28;20170;-68
2021/07/21 05:08:44;;;;;;;9.97;7.40;;;;;;;16.39;82.98;101417.47;5092869;28;20178;-67
2021/07/21 05:11:09;;;;;;;11.30;7.63;;;;;;;16.41;82.90;101418.22;5092020;28;20202;-68
2021/07/21 05:13:40;;;;;;;11.77;7.77;;;;;;;16.45;82.76;101417.06;5092968;28;20194;-68
2021/07/21 05:16:06;;;;;;;11.20;7.50;;;;;;;16.44;82.52;101418.03;5093025;28;20170;-68
2021/07/21 05:18:31;;;;;;;10.00;7.57;;;;;;;16.42;83.29;101420.81;5074862;28;20181;-69
2021/07/21 05:20:57;;;;;;;10.70;7.50;;;;;;;16.36;83.14;101421.25;5093342;28;20631;-69
2021/07/21 05:23:22;;;;;;;10.57;7.60;;;;;;;16.36;83.29;101423.94;5093025;28;20279;-69
2021/07/21 05:25:47;;;;;;;10.00;7.53;;;;;;;16.30;83.64;101418.94;5092814;28;20170;-69
2021/07/21 05:28:13;;;;;;;8.67;7.43;;;;;;;16.25;84.14;101429.16;5092766;28;20184;-69
2021/07/21 05:30:38;;;;;;;11.13;7.90;;;;;;;16.34;83.17;101424.97;5074738;28;20550;-69
2021/07/21 05:33:04;;;;;;;11.20;7.57;;;;;;;16.38;83.61;101424.69;5091455;28;20292;-69
2021/07/21 05:35:29;;;;;;;11.90;8.33;;;;;;;16.46;83.48;101427.72;5093140;28;20174;-69
2021/07/21 05:37:55;;;;;;;14.87;10.53;;;;;;;16.51;82.88;101412.09;5091818;28;20197;-69
2021/07/21 05:40:21;;;;;;;13.80;8.50;;;;;;;16.58;82.42;101420.63;5091742;28;20178;-69
2021/07/21 05:42:46;;;;;;;11.63;10.27;;;;;;;16.63;82.37;101417.59;5092586;28;20170;-68
2021/07/21 05:45:11;;;;;;;10.90;7.83;;;;;;;16.80;81.75;101428.13;5074582;28;20635;-68
2021/07/21 05:47:36;;;;;;;12.27;7.97;;;;;;;16.90;81.20;101428.34;5092885;28;20283;-68
2021/07/21 05:50:05;;;;;;;9.23;6.80;;;;;;;17.05;80.09;101425.41;5092386;28;20239;-68
2021/07/21 05:52:30;;;;;;;11.77;7.87;;;;;;;17.19;78.81;101422.63;5092605;28;20354;-68
2021/07/21 05:54:55;;;;;;;10.13;6.80;;;;;;;17.35;78.87;101429.63;5093849;28;20178;-68
2021/07/21 05:57:21;;;;;;;9.10;7.00;;;;;;;17.47;77.75;101428.75;5097022;28;20174;-69
2021/07/21 05:59:46;;;;;;;8.13;6.07;;;;;;;17.81;76.20;101433.41;5099962;28;20174;-68
2021/07/21 06:02:11;;;;;;;6.53;5.70;;;;;;;17.88;74.57;101441.09;5099237;28;20538;-70
2021/07/21 06:04:36;;;;;;;10.10;5.50;;;;;;;17.86;73.84;101440.34;5099008;28;20646;-69
2021/07/21 06:07:03;;;;;;;7.40;5.03;;;;;;;17.91;72.63;101447.13;5096413;28;20239;-69
2021/07/21 06:09:29;;;;;;;8.07;4.63;;;;;;;18.08;72.91;101444.00;5077969;28;20634;-69
2021/07/21 06:11:55;;;;;;;9.17;5.40;;;;;;;18.13;72.82;101443.66;5095980;28;20193;-69
2021/07/21 06:14:20;;;;;;;7.70;5.07;;;;;;;18.06;72.26;101443.28;5096092;28;20198;-69
2021/07/21 06:16:45;;;;;;;8.43;5.10;;;;;;;17.98;72.67;101444.81;5096018;28;20178;-68
2021/07/21 06:19:10;;;;;;;11.93;5.07;;;;;;;17.86;73.63;101451.13;5096151;28;20189;-68
2021/07/21 06:21:36;;;;;;;7.30;5.10;;;;;;;17.83;73.74;101451.34;5096081;28;20167;-69
2021/07/21 06:24:01;;;;;;;6.80;4.33;;;;;;;18.04;73.70;101452.47;5095860;28;20209;-68
2021/07/21 06:26:27;;;;;;;7.30;5.00;;;;;;;18.30;72.72;101455.94;5095854;28;20650;-68
2021/07/21 06:28:52;;;;;;;6.47;4.70;;;;;;;18.34;72.62;101452.88;5094766;28;20243;-68
2021/07/21 06:31:18;;;;;;;6.60;4.87;;;;;;;18.45;71.63;101454.75;5094225;28;20194;-69
2021/07/21 06:33:43;;;;;;;12.87;9.47;;;;;;;18.61;71.09;101460.72;5077283;28;20202;-69
2021/07/21 06:36:08;;;;;;;7.57;4.90;;;;;;;18.62;71.37;101459.78;5095913;28;20239;-69
2021/07/21 06:38:33;;;;;;;7.17;5.60;;;;;;;18.64;71.21;101459.66;5095924;28;20290;-68
2021/07/21 06:40:59;;;;;;;8.60;4.90;;;;;;;18.04;73.72;101464.13;5095437;28;20623;-67
2021/07/21 06:43:25;;;;;;;8.00;5.47;;;;;;;18.10;74.08;101466.38;5094347;28;20194;-68
2021/07/21 06:45:50;;;;;;;9.23;5.27;;;;;;;18.12;72.59;101468.97;5094238;28;20177;-67
2021/07/21 06:48:15;;;;;;;7.47;4.97;;;;;;;18.04;72.46;101476.78;5095381;28;20193;-67
2021/07/21 06:50:41;;;;;;;8.20;5.27;;;;;;;17.75;74.10;101482.47;5095357;28;20626;-68
2021/07/21 06:53:06;;;;;;;7.30;5.10;;;;;;;17.88;74.74;101481.59;5095568;28;20288;-68
2021/07/21 06:55:32;;;;;;;7.03;5.37;;;;;;;18.07;74.33;101479.25;5095623;28;20177;-68
2021/07/21 06:57:58;;;;;;;6.53;5.10;;;;;;;17.89;73.47;101483.31;5077217;28;20174;-69
2021/07/21 07:00:24;;;;;;;6.37;4.53;;;;;;;17.77;73.03;101488.63;5095291;28;20170;-69
2021/07/21 07:02:49;;;;;;;8.33;4.90;;;;;;;18.10;72.64;101487.97;5095023;28;20202;-69
2021/07/21 07:05:14;;;;;;;8.57;4.70;;;;;;;18.07;72.43;101501.72;5094160;28;20221;-68
2021/07/21 07:07:40;;;;;;;8.07;4.47;;;;;;;18.47;70.54;101504.16;5094329;28;20182;-68
2021/07/21 07:10:06;;;;;;;7.73;4.70;;;;;;;18.14;70.67;101507.53;5093030;28;20705;-68
2021/07/21 07:12:31;;;;;;;7.07;5.03;;;;;;;18.15;71.02;101511.94;5094594;28;20253;-67
2021/07/21 07:14:57;;;;;;;7.10;4.90;;;;;;;17.94;72.23;101508.13;5093739;28;20174;-69
2021/07/21 07:17:24;;;;;;;5.73;4.63;;;;;;;17.58;73.03;101512.50;5093678;28;20623;-69
2021/07/21 07:19:49;;;;;;;6.93;4.70;;;;;;;17.59;73.58;101516.91;5094740;28;20200;-69
2021/07/21 07:22:15;;;;;;;8.20;5.33;;;;;;;17.57;74.50;101513.47;5093422;28;20181;-69
2021/07/21 07:24:40;;;;;;;6.90;4.87;;;;;;;17.55;74.69;101525.34;5094783;28;20607;-68
2021/07/21 07:27:05;;;;;;;7.23;4.03;;;;;;;17.28;73.10;101514.66;5097224;28;20204;-69
2021/07/21 07:29:31;;;;;;;7.43;3.83;;;;;;;17.36;72.69;101523.06;5099442;28;20174;-68
2021/07/21 07:31:56;;;;;;;6.23;4.03;;;;;;;17.35;73.40;101518.66;5100274;28;20194;-68
2021/07/21 07:34:21;;;;;;;8.20;4.40;;;;;;;17.25;74.36;101510.34;5095134;28;20239;-69
2021/07/21 07:36:47;;;;;;;6.23;3.60;;;;;;;16.98;75.84;101521.22;5094818;28;20196;-68
2021/07/21 07:39:12;;;;;;;11.57;4.50;;;;;;;16.96;75.83;101523.16;5095111;28;20523;-68
2021/07/21 07:41:38;;;;;;;10.27;4.10;;;;;;;16.98;77.63;101534.69;5093302;28;20259;-68
2021/07/21 07:44:04;;;;;;;6.07;4.03;;;;;;;16.85;79.73;101525.72;5093004;28;20192;-68
2021/07/21 07:46:30;;;;;;;5.73;3.90;;;;;;;16.49;81.47;101523.66;5093057;28;20634;-67
2021/07/21 07:48:56;;;;;;;5.30;4.40;;;;;;;16.30;84.31;101540.16;5094143;28;20182;-69
2021/07/21 07:51:21;;;;;;;6.93;4.00;;;;;;;16.16;85.37;101541.06;5094512;28;20202;-69
2021/07/21 07:53:47;;;;;;;6.33;4.00;;;;;;;16.07;85.99;101533.59;5093010;28;20201;-69
2021/07/21 07:56:13;;;;;;;5.80;3.90;;;;;;;15.99;85.76;101537.75;5093928;28;20299;-68
2021/07/21 07:58:38;;;;;;;4.57;3.67;;;;;;;16.07;87.08;101535.41;5092732;28;20174;-67
2021/07/21 08:01:03;;;;;;;6.50;4.03;;;;;;;16.02;85.00;101529.47;5094263;28;20175;-69
2021/07/21 08:03:28;;;;;;;6.43;4.00;;;;;;;16.14;86.16;101537.59;5092930;28;20232;-69
2021/07/21 08:05:55;;;;;;;5.60;3.40;;;;;;;16.29;85.02;101535.72;5092959;28;20174;-67
2021/07/21 08:08:21;;;;;;;7.53;4.13;;;;;;;16.43;84.27;101548.31;5093111;28;20177;-67
2021/07/21 08:10:46;;;;;;;5.93;3.90;;;;;;;16.63;83.84;101545.13;5092555;28;20166;-70
2021/07/21 08:13:11;;;;;;;6.03;4.13;;;;;;;16.82;84.36;101547.50;5075845;28;20296;-69
2021/07/21 08:15:37;;;;;;;8.73;4.57;;;;;;;16.97;84.06;101532.09;5093347;28;20170;-69
2021/07/21 08:18:02;;;;;;;7.37;4.50;;;;;;;16.93;82.57;101539.53;5093491;28;20177;-69
2021/07/21 08:20:27;;;;;;;7.03;4.33;;;;;;;17.13;85.25;101544.44;5093765;28;20181;-69
2021/07/21 08:22:53;;;;;;;4.53;3.80;;;;;;;17.30;81.16;101539.69;5093820;28;20179;-69
2021/07/21 08:25:19;;;;;;;5.17;3.70;;;;;;;17.54;81.13;101535.28;5093583;28;20171;-69
2021/07/21 08:27:45;;;;;;;8.20;4.00;;;;;;;17.87;79.14;101545.53;5092708;28;20176;-69
2021/07/21 08:30:14;;;;;;;5.43;3.50;;;;;;;18.02;76.72;101533.59;5093404;28;20178;-69
2021/07/21 08:32:43;;;;;;;6.30;3.90;;;;;;;18.10;72.28;101536.59;5092135;28;20220;-68
2021/07/21 08:35:10;;;;;;;9.30;4.03;;;;;;;18.59;74.66;101529.41;5092255;28;20174;-68
2021/07/21 08:37:36;;;;;;;4.90;3.37;;;;;;;18.97;72.40;101527.38;5092425;28;20171;-70
2021/07/21 08:40:03;;;;;;;4.30;3.30;;;;;;;19.41;69.33;101539.28;5094415;28;20185;-70
2021/07/21 08:42:29;;;;;;;5.60;3.23;;;;;;;19.55;66.72;101549.91;5099790;28;20177;-68
2021/07/21 08:44:56;;;;;;;5.00;3.37;;;;;;;19.63;63.70;101536.59;5103169;28;20222;-67
2021/07/21 08:47:21;;;;;;;6.57;3.50;;;;;;;19.86;64.28;101539.31;5096981;28;20181;-69
2021/07/21 08:49:47;;;;;;;6.33;3.47;;;;;;;20.19;63.45;101542.00;5102547;28;20163;-69
2021/07/21 08:52:14;;;;;;;7.80;3.03;;;;;;;20.32;60.99;101538.28;5102495;28;20204;-69
2021/07/21 08:54:39;;;;;;;5.80;2.73;;;;;;;20.09;61.87;101532.91;5098302;28;20198;-69
2021/07/21 08:57:05;;;;;;;5.63;3.00;;;;;;;19.95;63.23;101533.16;5095429;28;20162;-69
2021/07/21 08:59:30;;;;;;;4.73;3.00;;;;;;;19.81;63.59;101522.59;5092497;28;20660;-68
2021/07/21 09:01:56;;;;;;;6.60;3.63;;;;;;;19.96;63.63;101524.03;5092463;28;20162;-68
2021/07/21 09:04:21;;;;;;;4.97;3.50;;;;;;;20.17;64.00;101524.16;5093415;28;20212;-68
2021/07/21 09:06:47;;;;;;;6.47;3.43;;;;;;;20.26;63.31;101531.50;5094415;28;20171;-68
2021/07/21 09:09:12;;;;;;;6.40;3.50;;;;;;;20.09;60.86;101524.78;5075995;28;20174;-68
2021/07/21 09:11:37;;;;;;;4.87;3.47;;;;;;;20.49;60.11;101526.94;5094643;28;20205;-68
2021/07/21 09:14:03;;;;;;;7.33;3.30;;;;;;;21.05;59.90;101530.25;5096364;28;20202;-68
2021/07/21 09:16:29;;;;;;;5.63;3.77;;;;;;;20.84;58.14;101537.53;5093946;28;20342;-69
2021/07/21 09:18:57;;;;;;;10.63;3.67;;;;;;;20.28;60.31;101533.09;5093101;28;20685;-69
2021/07/21 09:21:23;;;;;;;6.73;3.47;;;;;;;20.46;60.62;101538.03;5094860;28;20166;-70
2021/07/21 09:23:52;;;;;;;5.30;3.70;;;;;;;20.68;60.38;101537.09;5094246;28;20201;-70
2021/07/21 09:26:23;;;;;;;5.47;3.93;;;;;;;20.49;60.34;101535.06;5094578;28;20170;-69
2021/07/21 09:28:50;;;;;;;8.03;3.63;;;;;;;20.15;61.39;101532.41;5095064;28;20170;-69
2021/07/21 09:31:29;;;;;;;6.87;4.33;;;;;;;19.82;63.25;101546.84;5093499;28;20170;-68
2021/07/21 09:33:55;;;;;;;8.23;3.63;;;;;;;19.53;64.28;101535.63;5097370;28;20198;-69
2021/07/21 09:36:21;;;;;;;5.97;3.90;;;;;;;19.21;66.15;101537.25;5096053;28;20181;-69
2021/07/21 09:38:46;;;;;;;9.03;4.20;;;;;;;18.87;67.29;101537.16;5095739;28;20186;-68
2021/07/21 09:41:13;;;;;;;8.20;4.10;;;;;;;18.59;67.83;101532.97;5097371;28;20256;-69
2021/07/21 09:43:39;;;;;;;6.63;3.97;;;;;;;18.26;69.94;101539.06;5097269;28;20201;-69
2021/07/21 09:46:07;;;;;;;8.83;4.10;;;;;;;18.08;70.52;101541.25;5099131;28;20538;-70
2021/07/21 09:48:40;;;;;;;6.50;4.53;;;;;;;17.82;71.95;101539.56;5097601;28;20194;-69
2021/07/21 09:51:05;;;;;;;7.47;4.30;;;;;;;17.58;73.08;101536.78;5095801;28;20234;-69
2021/07/21 09:53:46;;;;;;;6.90;4.20;;;;;;;17.64;73.86;101539.03;5097912;28;20682;-68
2021/07/21 09:56:12;;;;;;;7.90;4.53;;;;;;;17.75;73.94;101541.00;5096336;28;20249;-68
2021/07/21 09:58:37;;;;;;;6.40;4.30;;;;;;;17.73;74.07;101551.03;5096789;28;20166;-69
2021/07/21 10:01:03;;;;;;;7.17;4.53;;;;;;;17.62;74.24;101543.69;5078814;28;20166;-68
2021/07/21 10:03:30;;;;;;;6.80;4.57;;;;;;;17.63;74.40;101550.81;5114772;22;20223;-70
2021/07/21 10:06:09;;;;;;;6.30;4.37;;;;;;;17.73;74.46;101548.34;5058414;28;20179;-70
2021/07/21 10:08:48;;;;;;;5.20;4.13;;;;;;;17.85;75.29;101552.03;5074810;28;20216;-70
2021/07/21 10:11:28;;;;;;;6.23;4.20;;;;;;;18.28;72.50;101556.03;5091489;28;20611;-70
2021/07/21 10:14:03;;;;;;;5.27;3.93;;;;;;;18.65;71.02;101564.13;5091777;28;20194;-70
2021/07/21 10:16:36;;;;;;;7.47;4.10;;;;;;;18.93;69.53;101558.31;5076146;28;20175;-70
2021/07/21 10:19:13;;;;;;;6.83;4.40;;;;;;;19.37;67.09;101551.34;5074525;28;20654;-71
2021/07/21 10:21:41;;;;;;;6.43;3.87;;;;;;;19.98;64.75;101557.28;5057703;28;20174;-71
2021/07/21 10:24:07;;;;;;;3.73;3.13;;;;;;;20.53;62.71;101559.09;5057660;28;20226;-71
2021/07/21 10:26:33;;;;;;;6.63;3.90;;;;;;;20.62;60.53;101556.59;5057963;28;20725;-71
2021/07/21 10:28:59;;;;;;;9.33;3.97;;;;;;;21.19;59.22;101548.06;5058263;28;20232;-71
2021/07/21 10:31:25;;;;;;;11.47;4.63;;;;;;;21.04;59.13;101547.53;5074845;28;20675;-71
2021/07/21 10:33:51;;;;;;;8.57;3.60;;;;;;;20.68;59.98;101553.34;5057920;28;20241;-70
2021/07/21 10:36:17;;;;;;;4.50;3.43;;;;;;;21.63;57.84;101559.66;5074426;28;20206;-71
2021/07/21 10:38:44;;;;;;;4.00;3.27;;;;;;;21.90;56.74;101561.75;5057691;28;20202;-71
2021/07/21 10:41:09;;;;;;;4.57;3.27;;;;;;;21.54;57.99;101564.88;5074504;28;20182;-71
2021/07/21 10:43:35;;;;;;;6.80;3.47;;;;;;;21.37;58.28;101560.06;5073249;28;20621;-70
2021/07/21 10:46:02;;;;;;;6.30;3.80;;;;;;;20.83;59.51;101561.09;5074201;28;20179;-71
2021/07/21 10:48:44;;;;;;;5.73;4.10;;;;;;;20.13;62.03;101561.47;5075231;28;20177;-70
2021/07/21 10:51:44;;;;;;;6.30;3.73;;;;;;;19.95;62.90;101547.56;5057792;28;20189;-71
2021/07/21 10:54:28;;;;;;;5.23;3.60;;;;;;;19.77;64.91;101551.78;5075152;28;20195;-71
2021/07/21 10:59:41;;;;;;;6.63;3.33;;;;;;;20.23;62.94;101551.59;5074044;28;20182;-70
2021/07/21 11:02:07;;;;;;;6.80;4.17;;;;;;;20.17;62.44;101548.53;5073993;28;20186;-71
2021/07/21 11:04:45;;;;;;;3.73;3.07;;;;;;;20.44;62.16;101548.13;5073757;28;20256;-71
2021/07/21 11:07:11;;;;;;;8.87;3.57;;;;;;;20.51;62.25;101541.22;5073631;28;20209;-71
2021/07/21 11:09:40;;;;;;;9.80;3.70;;;;;;;20.47;62.97;101547.91;5056783;28;20177;-71
2021/07/21 11:12:06;;;;;;;5.40;3.73;;;;;;;20.32;62.17;101539.13;5056763;28;20198;-72
2021/07/21 11:14:33;;;;;;;4.63;3.40;;;;;;;21.19;59.84;101539.94;5056570;28;20260;-72
2021/07/21 11:17:07;;;;;;;4.63;3.30;;;;;;;22.22;57.33;101545.31;5073431;28;20543;-72
2021/07/21 11:19:48;;;;;;;5.77;3.83;;;;;;;21.77;56.95;101538.41;5074438;28;20174;-71
2021/07/21 11:22:19;;;;;;;7.00;4.20;;;;;;;23.58;53.45;101541.63;5073642;28;20174;-71
2021/07/21 11:25:19;;;;;;;6.00;3.57;;;;;;;24.82;47.49;101533.75;5074478;28;20190;-72
2021/07/21 11:28:02;;;;;;;6.87;3.57;;;;;;;24.98;47.53;101533.06;5056615;28;20225;-71
2021/07/21 11:30:49;;;;;;;5.17;3.67;;;;;;;25.80;45.23;101529.88;5056823;28;20527;-71
2021/07/21 11:33:55;;;;;;;5.37;3.17;;;;;;;26.98;43.31;101533.47;5057172;28;20264;-71
2021/07/21 11:36:43;;;;;;;6.17;3.70;;;;;;;29.17;38.41;101537.22;5074547;28;20171;-71